sensor_id;sensor_type;location;lat;lon;timestamp;pressure;altitude;pressure_sealevel;temperature;humidity
13593;BME280;6867;50.998;4.250;2023-05-07T00:01:34;101297.22;;;17.61;75.38
13593;BME280;6867;50.998;4.250;2023-05-07T00:04:01;101306.56;;;17.53;76.27
13593;BME280;6867;50.998;4.250;2023-05-07T00:06:29;101314.44;;;17.55;76.59
13593;BME280;6867;50.998;4.250;2023-05-07T00:08:56;101308.06;;;17.61;76.64
13593;BME280;6867;50.998;4.250;2023-05-07T00:11:23;101316.94;;;17.56;76.46
13593;BME280;6867;50.998;4.250;2023-05-07T00:13:51;101305.13;;;17.51;76.55
13593;BME280;6867;50.998;4.250;2023-05-07T00:16:17;101296.50;;;17.54;76.68
13593;BME280;6867;50.998;4.250;2023-05-07T00:18:44;101297.25;;;17.49;76.65
13593;BME280;6867;50.998;4.250;2023-05-07T00:21:11;101294.25;;;17.51;76.75
13593;BME280;6867;50.998;4.250;2023-05-07T00:23:39;101302.19;;;17.52;76.65
13593;BME280;6867;50.998;4.250;2023-05-07T00:26:06;101289.53;;;17.58;76.57
13593;BME280;6867;50.998;4.250;2023-05-07T00:28:33;101290.13;;;17.60;76.34
13593;BME280;6867;50.998;4.250;2023-05-07T00:30:59;101286.19;;;17.67;75.72
13593;BME280;6867;50.998;4.250;2023-05-07T00:33:26;101281.00;;;17.66;75.96
13593;BME280;6867;50.998;4.250;2023-05-07T00:35:53;101284.88;;;17.70;75.78
13593;BME280;6867;50.998;4.250;2023-05-07T00:38:20;101278.28;;;17.66;75.81
13593;BME280;6867;50.998;4.250;2023-05-07T00:40:48;101267.41;;;17.66;75.32
13593;BME280;6867;50.998;4.250;2023-05-07T00:43:15;101254.34;;;17.51;74.77
13593;BME280;6867;50.998;4.250;2023-05-07T00:45:42;101254.34;;;17.51;74.61
13593;BME280;6867;50.998;4.250;2023-05-07T00:48:09;101260.41;;;17.41;74.88
13593;BME280;6867;50.998;4.250;2023-05-07T00:50:36;101264.94;;;17.36;75.41
13593;BME280;6867;50.998;4.250;2023-05-07T00:53:04;101268.94;;;17.33;75.58
13593;BME280;6867;50.998;4.250;2023-05-07T00:55:30;101268.25;;;17.26;75.81
13593;BME280;6867;50.998;4.250;2023-05-07T00:57:58;101266.03;;;17.23;75.80
13593;BME280;6867;50.998;4.250;2023-05-07T01:00:25;101269.69;;;17.17;75.80
13593;BME280;6867;50.998;4.250;2023-05-07T01:02:52;101261.91;;;17.09;76.16
13593;BME280;6867;50.998;4.250;2023-05-07T01:05:20;101266.66;;;17.02;76.27
13593;BME280;6867;50.998;4.250;2023-05-07T01:07:49;101263.94;;;16.90;76.55
13593;BME280;6867;50.998;4.250;2023-05-07T01:10:18;101258.28;;;16.80;76.57
13593;BME280;6867;50.998;4.250;2023-05-07T01:12:46;101256.06;;;16.77;76.81
13593;BME280;6867;50.998;4.250;2023-05-07T01:15:15;101256.25;;;16.63;76.69
13593;BME280;6867;50.998;4.250;2023-05-07T01:17:43;101246.72;;;16.49;77.24
13593;BME280;6867;50.998;4.250;2023-05-07T01:20:10;101243.53;;;16.40;77.31
13593;BME280;6867;50.998;4.250;2023-05-07T01:22:39;101250.94;;;16.33;77.48
13593;BME280;6867;50.998;4.250;2023-05-07T01:25:07;101254.81;;;16.26;78.18
13593;BME280;6867;50.998;4.250;2023-05-07T01:27:35;101255.06;;;16.24;78.40
13593;BME280;6867;50.998;4.250;2023-05-07T01:30:02;101254.81;;;16.26;78.76
13593;BME280;6867;50.998;4.250;2023-05-07T01:32:35;101255.66;;;16.26;78.88
13593;BME280;6867;50.998;4.250;2023-05-07T01:35:03;101258.81;;;16.23;78.94
13593;BME280;6867;50.998;4.250;2023-05-07T01:37:31;101253.28;;;16.18;78.67
13593;BME280;6867;50.998;4.250;2023-05-07T01:40:01;101247.72;;;16.13;78.72
13593;BME280;6867;50.998;4.250;2023-05-07T01:42:28;101251.38;;;16.07;78.56
13593;BME280;6867;50.998;4.250;2023-05-07T01:44:56;101243.13;;;16.02;78.50
13593;BME280;6867;50.998;4.250;2023-05-07T01:47:22;101250.75;;;16.05;78.67
13593;BME280;6867;50.998;4.250;2023-05-07T01:49:50;101254.78;;;16.02;78.76
13593;BME280;6867;50.998;4.250;2023-05-07T01:52:17;101249.56;;;16.01;78.80
13593;BME280;6867;50.998;4.250;2023-05-07T01:54:43;101248.75;;;16.00;78.96
13593;BME280;6867;50.998;4.250;2023-05-07T01:57:11;101256.44;;;16.03;79.49
13593;BME280;6867;50.998;4.250;2023-05-07T01:59:38;101256.06;;;16.00;79.15
13593;BME280;6867;50.998;4.250;2023-05-07T02:02:05;101261.94;;;15.97;79.45
13593;BME280;6867;50.998;4.250;2023-05-07T02:04:32;101274.66;;;15.96;79.67
13593;BME280;6867;50.998;4.250;2023-05-07T02:06:58;101273.00;;;15.95;79.38
13593;BME280;6867;50.998;4.250;2023-05-07T02:09:25;101271.13;;;15.96;79.51
13593;BME280;6867;50.998;4.250;2023-05-07T02:11:52;101271.81;;;15.91;79.34
13593;BME280;6867;50.998;4.250;2023-05-07T02:14:20;101273.25;;;15.93;79.19
13593;BME280;6867;50.998;4.250;2023-05-07T02:16:46;101269.34;;;15.89;79.07
13593;BME280;6867;50.998;4.250;2023-05-07T02:19:13;101274.44;;;15.98;79.23
13593;BME280;6867;50.998;4.250;2023-05-07T02:21:40;101272.22;;;16.06;79.11
13593;BME280;6867;50.998;4.250;2023-05-07T02:24:07;101275.56;;;16.20;79.05
13593;BME280;6867;50.998;4.250;2023-05-07T02:26:33;101270.16;;;16.32;78.69
13593;BME280;6867;50.998;4.250;2023-05-07T02:29:00;101272.28;;;16.41;78.82
13593;BME280;6867;50.998;4.250;2023-05-07T02:31:28;101268.50;;;16.54;78.43
13593;BME280;6867;50.998;4.250;2023-05-07T02:33:55;101264.53;;;16.57;78.64
13593;BME280;6867;50.998;4.250;2023-05-07T02:36:21;101268.88;;;16.58;78.60
13593;BME280;6867;50.998;4.250;2023-05-07T02:38:48;101270.88;;;16.62;78.54
13593;BME280;6867;50.998;4.250;2023-05-07T02:41:15;101273.13;;;16.65;78.62
13593;BME280;6867;50.998;4.250;2023-05-07T02:43:41;101266.75;;;16.72;78.74
13593;BME280;6867;50.998;4.250;2023-05-07T02:46:09;101272.66;;;16.80;78.47
13593;BME280;6867;50.998;4.250;2023-05-07T02:48:37;101263.59;;;16.75;78.44
13593;BME280;6867;50.998;4.250;2023-05-07T02:51:04;101274.56;;;16.68;78.51
13593;BME280;6867;50.998;4.250;2023-05-07T02:53:31;101273.72;;;16.67;78.48
13593;BME280;6867;50.998;4.250;2023-05-07T02:56:00;101266.16;;;16.69;78.57
13593;BME280;6867;50.998;4.250;2023-05-07T02:58:27;101270.88;;;16.51;78.91
13593;BME280;6867;50.998;4.250;2023-05-07T03:00:53;101279.34;;;16.42;79.07
13593;BME280;6867;50.998;4.250;2023-05-07T03:03:20;101284.91;;;16.36;79.58
13593;BME280;6867;50.998;4.250;2023-05-07T03:05:49;101276.63;;;16.42;79.87
13593;BME280;6867;50.998;4.250;2023-05-07T03:08:15;101271.91;;;16.38;79.83
13593;BME280;6867;50.998;4.250;2023-05-07T03:10:42;101282.41;;;16.34;80.25
13593;BME280;6867;50.998;4.250;2023-05-07T03:13:09;101277.50;;;16.43;80.15
13593;BME280;6867;50.998;4.250;2023-05-07T03:15:35;101274.06;;;16.48;80.30
13593;BME280;6867;50.998;4.250;2023-05-07T03:18:03;101275.25;;;16.52;80.01
13593;BME280;6867;50.998;4.250;2023-05-07T03:20:29;101270.41;;;16.54;79.87
13593;BME280;6867;50.998;4.250;2023-05-07T03:22:57;101271.34;;;16.59;79.76
13593;BME280;6867;50.998;4.250;2023-05-07T03:25:24;101269.13;;;16.68;79.54
13593;BME280;6867;50.998;4.250;2023-05-07T03:27:51;101268.44;;;16.73;79.04
13593;BME280;6867;50.998;4.250;2023-05-07T03:30:18;101267.13;;;16.75;79.09
13593;BME280;6867;50.998;4.250;2023-05-07T03:32:45;101266.66;;;16.78;79.18
13593;BME280;6867;50.998;4.250;2023-05-07T03:35:12;101266.63;;;16.66;79.29
13593;BME280;6867;50.998;4.250;2023-05-07T03:37:39;101280.81;;;16.68;79.76
13593;BME280;6867;50.998;4.250;2023-05-07T03:40:08;101285.19;;;16.81;79.39
13593;BME280;6867;50.998;4.250;2023-05-07T03:42:37;101291.16;;;16.72;79.84
13593;BME280;6867;50.998;4.250;2023-05-07T03:45:05;101280.94;;;16.74;79.61
13593;BME280;6867;50.998;4.250;2023-05-07T03:47:31;101277.53;;;16.78;79.18
13593;BME280;6867;50.998;4.250;2023-05-07T03:49:58;101278.69;;;16.82;79.00
13593;BME280;6867;50.998;4.250;2023-05-07T03:52:25;101276.00;;;16.82;79.15
13593;BME280;6867;50.998;4.250;2023-05-07T03:54:52;101277.28;;;16.80;79.38
13593;BME280;6867;50.998;4.250;2023-05-07T03:57:20;101283.53;;;16.80;79.60
13593;BME280;6867;50.998;4.250;2023-05-07T03:59:47;101290.94;;;16.61;80.43
13593;BME280;6867;50.998;4.250;2023-05-07T04:02:13;101304.41;;;16.68;80.28
13593;BME280;6867;50.998;4.250;2023-05-07T04:04:40;101302.34;;;16.63;80.49
13593;BME280;6867;50.998;4.250;2023-05-07T04:07:07;101305.56;;;16.60;81.11
13593;BME280;6867;50.998;4.250;2023-05-07T04:09:34;101295.19;;;16.69;80.69
13593;BME280;6867;50.998;4.250;2023-05-07T04:12:00;101300.81;;;16.67;80.83
13593;BME280;6867;50.998;4.250;2023-05-07T04:14:29;101292.13;;;16.65;81.05
13593;BME280;6867;50.998;4.250;2023-05-07T04:16:57;101282.44;;;16.69;80.93
13593;BME280;6867;50.998;4.250;2023-05-07T04:19:24;101280.81;;;16.68;81.05
13593;BME280;6867;50.998;4.250;2023-05-07T04:21:50;101288.00;;;16.75;81.20
13593;BME280;6867;50.998;4.250;2023-05-07T04:24:17;101278.44;;;16.72;81.16
13593;BME280;6867;50.998;4.250;2023-05-07T04:26:44;101280.69;;;16.87;80.74
13593;BME280;6867;50.998;4.250;2023-05-07T04:29:10;101275.88;;;16.89;80.43
13593;BME280;6867;50.998;4.250;2023-05-07T04:31:39;101278.59;;;16.89;80.67
13593;BME280;6867;50.998;4.250;2023-05-07T04:34:05;101278.44;;;16.96;80.59
13593;BME280;6867;50.998;4.250;2023-05-07T04:36:32;101270.31;;;17.07;80.57
13593;BME280;6867;50.998;4.250;2023-05-07T04:38:59;101274.63;;;17.20;79.68
13593;BME280;6867;50.998;4.250;2023-05-07T04:41:26;101277.94;;;17.22;79.40
13593;BME280;6867;50.998;4.250;2023-05-07T04:43:52;101275.22;;;17.22;79.51
13593;BME280;6867;50.998;4.250;2023-05-07T04:46:19;101283.97;;;17.24;79.49
13593;BME280;6867;50.998;4.250;2023-05-07T04:48:47;101286.41;;;17.26;79.57
13593;BME280;6867;50.998;4.250;2023-05-07T04:51:14;101286.88;;;17.34;79.25
13593;BME280;6867;50.998;4.250;2023-05-07T04:53:40;101284.41;;;17.33;79.22
13593;BME280;6867;50.998;4.250;2023-05-07T04:56:08;101290.88;;;17.43;79.05
13593;BME280;6867;50.998;4.250;2023-05-07T04:58:35;101286.72;;;17.53;78.82
13593;BME280;6867;50.998;4.250;2023-05-07T05:01:01;101284.53;;;17.66;78.70
13593;BME280;6867;50.998;4.250;2023-05-07T05:03:28;101291.13;;;17.71;78.48
13593;BME280;6867;50.998;4.250;2023-05-07T05:05:56;101292.47;;;17.97;78.30
13593;BME280;6867;50.998;4.250;2023-05-07T05:08:24;101291.91;;;17.95;77.87
13593;BME280;6867;50.998;4.250;2023-05-07T05:10:51;101290.09;;;18.17;77.57
13593;BME280;6867;50.998;4.250;2023-05-07T05:13:18;101288.06;;;18.24;77.31
13593;BME280;6867;50.998;4.250;2023-05-07T05:15:44;101297.13;;;18.30;76.73
13593;BME280;6867;50.998;4.250;2023-05-07T05:18:11;101295.75;;;18.44;76.50
13593;BME280;6867;50.998;4.250;2023-05-07T05:20:38;101289.31;;;18.50;75.63
13593;BME280;6867;50.998;4.250;2023-05-07T05:23:07;101298.16;;;18.74;75.45
13593;BME280;6867;50.998;4.250;2023-05-07T05:25:34;101298.88;;;18.86;75.08
13593;BME280;6867;50.998;4.250;2023-05-07T05:28:00;101297.38;;;18.96;74.84
13593;BME280;6867;50.998;4.250;2023-05-07T05:30:28;101304.78;;;19.00;74.51
13593;BME280;6867;50.998;4.250;2023-05-07T05:32:54;101300.16;;;19.01;73.75
13593;BME280;6867;50.998;4.250;2023-05-07T05:35:21;101296.72;;;18.88;73.43
13593;BME280;6867;50.998;4.250;2023-05-07T05:37:47;101301.19;;;18.78;73.60
13593;BME280;6867;50.998;4.250;2023-05-07T05:40:16;101307.41;;;18.73;73.77
13593;BME280;6867;50.998;4.250;2023-05-07T05:42:42;101319.91;;;18.57;73.98
13593;BME280;6867;50.998;4.250;2023-05-07T05:45:09;101324.25;;;18.58;74.17
13593;BME280;6867;50.998;4.250;2023-05-07T05:47:37;101326.22;;;18.63;74.18
13593;BME280;6867;50.998;4.250;2023-05-07T05:50:05;101326.19;;;18.75;74.04
13593;BME280;6867;50.998;4.250;2023-05-07T05:52:32;101320.78;;;18.63;74.08
13593;BME280;6867;50.998;4.250;2023-05-07T05:54:59;101325.91;;;18.76;74.23
13593;BME280;6867;50.998;4.250;2023-05-07T05:57:27;101333.84;;;18.61;74.71
13593;BME280;6867;50.998;4.250;2023-05-07T05:59:53;101332.81;;;18.50;75.01
13593;BME280;6867;50.998;4.250;2023-05-07T06:02:20;101352.13;;;18.49;75.78
13593;BME280;6867;50.998;4.250;2023-05-07T06:04:47;101359.38;;;18.60;75.53
13593;BME280;6867;50.998;4.250;2023-05-07T06:07:14;101355.41;;;18.67;74.96
13593;BME280;6867;50.998;4.250;2023-05-07T06:09:40;101369.00;;;18.51;75.65
13593;BME280;6867;50.998;4.250;2023-05-07T06:12:07;101369.94;;;18.39;76.04
13593;BME280;6867;50.998;4.250;2023-05-07T06:14:35;101373.09;;;18.65;75.76
13593;BME280;6867;50.998;4.250;2023-05-07T06:17:02;101367.34;;;18.78;75.14
13593;BME280;6867;50.998;4.250;2023-05-07T06:19:28;101373.03;;;18.94;74.77
13593;BME280;6867;50.998;4.250;2023-05-07T06:21:55;101370.13;;;19.00;74.59
13593;BME280;6867;50.998;4.250;2023-05-07T06:24:22;101367.97;;;19.19;74.23
13593;BME280;6867;50.998;4.250;2023-05-07T06:26:49;101368.16;;;19.34;74.00
13593;BME280;6867;50.998;4.250;2023-05-07T06:29:16;101369.78;;;19.52;72.87
13593;BME280;6867;50.998;4.250;2023-05-07T06:31:44;101363.44;;;19.69;72.76
13593;BME280;6867;50.998;4.250;2023-05-07T06:34:11;101355.16;;;19.80;72.31
13593;BME280;6867;50.998;4.250;2023-05-07T06:36:39;101363.19;;;19.92;71.88
13593;BME280;6867;50.998;4.250;2023-05-07T06:39:06;101357.94;;;19.85;71.38
13593;BME280;6867;50.998;4.250;2023-05-07T06:41:33;101361.00;;;19.67;71.43
13593;BME280;6867;50.998;4.250;2023-05-07T06:44:00;101348.72;;;19.48;71.32
13593;BME280;6867;50.998;4.250;2023-05-07T06:46:27;101364.97;;;19.21;71.25
13593;BME280;6867;50.998;4.250;2023-05-07T06:48:56;101362.03;;;19.05;71.56
13593;BME280;6867;50.998;4.250;2023-05-07T06:51:23;101367.25;;;18.90;71.76
13593;BME280;6867;50.998;4.250;2023-05-07T06:53:49;101376.47;;;18.72;72.53
13593;BME280;6867;50.998;4.250;2023-05-07T06:56:16;101383.28;;;18.58;73.07
13593;BME280;6867;50.998;4.250;2023-05-07T06:58:43;101384.25;;;18.52;73.60
13593;BME280;6867;50.998;4.250;2023-05-07T07:01:09;101384.78;;;18.49;73.44
13593;BME280;6867;50.998;4.250;2023-05-07T07:03:36;101383.84;;;18.43;73.64
13593;BME280;6867;50.998;4.250;2023-05-07T07:06:05;101394.16;;;18.41;74.29
13593;BME280;6867;50.998;4.250;2023-05-07T07:08:31;101384.78;;;18.49;73.92
13593;BME280;6867;50.998;4.250;2023-05-07T07:10:58;101401.97;;;18.37;75.07
13593;BME280;6867;50.998;4.250;2023-05-07T07:13:25;101395.78;;;18.42;74.92
13593;BME280;6867;50.998;4.250;2023-05-07T07:15:51;101398.47;;;18.54;75.24
13593;BME280;6867;50.998;4.250;2023-05-07T07:18:19;101398.31;;;18.60;74.84
13593;BME280;6867;50.998;4.250;2023-05-07T07:20:45;101400.50;;;18.47;75.33
13593;BME280;6867;50.998;4.250;2023-05-07T07:23:14;101406.44;;;18.44;75.87
13593;BME280;6867;50.998;4.250;2023-05-07T07:25:40;101410.81;;;18.16;76.66
13593;BME280;6867;50.998;4.250;2023-05-07T07:28:07;101419.44;;;18.41;76.73
13593;BME280;6867;50.998;4.250;2023-05-07T07:30:36;101411.78;;;18.38;76.57
13593;BME280;6867;50.998;4.250;2023-05-07T07:33:03;101416.38;;;18.38;76.98
13593;BME280;6867;50.998;4.250;2023-05-07T07:35:30;101422.03;;;18.48;76.97
13593;BME280;6867;50.998;4.250;2023-05-07T07:37:57;101421.31;;;18.53;77.27
13593;BME280;6867;50.998;4.250;2023-05-07T07:40:25;101425.41;;;18.55;77.58
13593;BME280;6867;50.998;4.250;2023-05-07T07:42:52;101422.53;;;18.62;77.72
13593;BME280;6867;50.998;4.250;2023-05-07T07:45:19;101421.78;;;18.78;77.73
13593;BME280;6867;50.998;4.250;2023-05-07T07:47:46;101419.72;;;18.85;77.30
13593;BME280;6867;50.998;4.250;2023-05-07T07:50:13;101427.78;;;18.80;77.68
13593;BME280;6867;50.998;4.250;2023-05-07T07:52:40;101427.53;;;18.82;77.53
13593;BME280;6867;50.998;4.250;2023-05-07T07:55:08;101428.38;;;18.82;77.53
13593;BME280;6867;50.998;4.250;2023-05-07T07:57:36;101427.78;;;18.97;77.46
13593;BME280;6867;50.998;4.250;2023-05-07T08:00:04;101423.69;;;18.95;76.96
13593;BME280;6867;50.998;4.250;2023-05-07T08:02:32;101433.41;;;19.07;77.45
13593;BME280;6867;50.998;4.250;2023-05-07T08:04:59;101437.63;;;19.15;77.70
13593;BME280;6867;50.998;4.250;2023-05-07T08:07:25;101428.19;;;19.23;76.89
13593;BME280;6867;50.998;4.250;2023-05-07T08:09:52;101428.69;;;19.36;76.64
13593;BME280;6867;50.998;4.250;2023-05-07T08:12:19;101431.56;;;19.30;76.84
13593;BME280;6867;50.998;4.250;2023-05-07T08:14:47;101436.84;;;19.36;76.21
13593;BME280;6867;50.998;4.250;2023-05-07T08:17:13;101422.38;;;19.53;76.06
13593;BME280;6867;50.998;4.250;2023-05-07T08:19:41;101434.03;;;19.65;75.76
13593;BME280;6867;50.998;4.250;2023-05-07T08:22:07;101431.41;;;19.75;75.55
13593;BME280;6867;50.998;4.250;2023-05-07T08:24:34;101442.59;;;19.74;75.96
13593;BME280;6867;50.998;4.250;2023-05-07T08:27:01;101440.53;;;19.64;75.42
13593;BME280;6867;50.998;4.250;2023-05-07T08:29:27;101441.28;;;19.81;74.94
13593;BME280;6867;50.998;4.250;2023-05-07T08:31:56;101442.91;;;19.77;74.69
13593;BME280;6867;50.998;4.250;2023-05-07T08:34:23;101437.44;;;19.77;74.55
13593;BME280;6867;50.998;4.250;2023-05-07T08:36:49;101440.84;;;19.89;74.25
13593;BME280;6867;50.998;4.250;2023-05-07T08:39:16;101445.16;;;19.85;74.00
13593;BME280;6867;50.998;4.250;2023-05-07T08:41:44;101438.13;;;19.89;73.50
13593;BME280;6867;50.998;4.250;2023-05-07T08:44:12;101452.06;;;19.93;74.10
13593;BME280;6867;50.998;4.250;2023-05-07T08:46:41;101457.78;;;19.92;74.95
13593;BME280;6867;50.998;4.250;2023-05-07T08:49:10;101460.19;;;20.10;74.96
13593;BME280;6867;50.998;4.250;2023-05-07T08:51:37;101460.19;;;20.10;74.73
13593;BME280;6867;50.998;4.250;2023-05-07T08:54:05;101456.97;;;20.13;74.78
13593;BME280;6867;50.998;4.250;2023-05-07T08:56:32;101458.75;;;20.02;74.82
13593;BME280;6867;50.998;4.250;2023-05-07T08:58:59;101456.59;;;20.04;74.53
13593;BME280;6867;50.998;4.250;2023-05-07T09:01:26;101467.56;;;20.09;74.88
13593;BME280;6867;50.998;4.250;2023-05-07T09:03:53;101469.53;;;19.92;75.21
13593;BME280;6867;50.998;4.250;2023-05-07T09:06:21;101470.94;;;19.95;75.40
13593;BME280;6867;50.998;4.250;2023-05-07T09:08:52;101486.69;;;19.93;76.20
13593;BME280;6867;50.998;4.250;2023-05-07T09:11:22;101464.06;;;19.92;75.42
13593;BME280;6867;50.998;4.250;2023-05-07T09:13:49;101477.97;;;19.90;75.90
13593;BME280;6867;50.998;4.250;2023-05-07T09:16:20;101474.91;;;19.87;75.92
13593;BME280;6867;50.998;4.250;2023-05-07T09:18:51;101490.78;;;19.90;77.15
13593;BME280;6867;50.998;4.250;2023-05-07T09:21:19;101475.84;;;19.76;76.52
13593;BME280;6867;50.998;4.250;2023-05-07T09:23:50;101494.66;;;19.60;78.07
13593;BME280;6867;50.998;4.250;2023-05-07T09:26:17;101499.50;;;19.70;78.64
13593;BME280;6867;50.998;4.250;2023-05-07T09:28:44;101497.97;;;19.79;78.00
13593;BME280;6867;50.998;4.250;2023-05-07T09:31:12;101489.31;;;19.82;77.52
13593;BME280;6867;50.998;4.250;2023-05-07T09:33:39;101496.41;;;20.05;77.37
13593;BME280;6867;50.998;4.250;2023-05-07T09:36:07;101507.09;;;20.07;78.26
13593;BME280;6867;50.998;4.250;2023-05-07T09:38:35;101493.13;;;20.03;77.92
13593;BME280;6867;50.998;4.250;2023-05-07T09:41:04;101497.88;;;20.13;77.40
13593;BME280;6867;50.998;4.250;2023-05-07T09:43:32;101505.66;;;20.26;77.66
13593;BME280;6867;50.998;4.250;2023-05-07T09:46:02;101503.44;;;20.45;77.51
13593;BME280;6867;50.998;4.250;2023-05-07T09:48:29;101496.22;;;20.56;76.40
13593;BME280;6867;50.998;4.250;2023-05-07T09:50:58;101487.31;;;20.44;75.91
13593;BME280;6867;50.998;4.250;2023-05-07T09:53:29;101505.44;;;20.28;76.50
13593;BME280;6867;50.998;4.250;2023-05-07T09:55:57;101511.19;;;20.31;76.34
13593;BME280;6867;50.998;4.250;2023-05-07T09:58:27;101514.44;;;20.28;76.76
13593;BME280;6867;50.998;4.250;2023-05-07T10:00:55;101513.53;;;20.23;76.90
13593;BME280;6867;50.998;4.250;2023-05-07T10:03:24;101513.84;;;20.26;77.35
13593;BME280;6867;50.998;4.250;2023-05-07T10:05:54;101524.16;;;20.41;77.49
13593;BME280;6867;50.998;4.250;2023-05-07T10:08:21;101502.25;;;20.36;76.23
13593;BME280;6867;50.998;4.250;2023-05-07T10:10:49;101519.25;;;20.43;76.85
13593;BME280;6867;50.998;4.250;2023-05-07T10:13:17;101519.31;;;20.48;76.46
13593;BME280;6867;50.998;4.250;2023-05-07T10:15:46;101513.94;;;20.53;76.45
13593;BME280;6867;50.998;4.250;2023-05-07T10:18:14;101516.72;;;20.58;76.72
13593;BME280;6867;50.998;4.250;2023-05-07T10:20:43;101515.91;;;20.58;76.23
13593;BME280;6867;50.998;4.250;2023-05-07T10:23:14;101527.63;;;20.58;76.87
13593;BME280;6867;50.998;4.250;2023-05-07T10:25:45;101523.72;;;20.76;76.49
13593;BME280;6867;50.998;4.250;2023-05-07T10:28:12;101526.25;;;20.83;76.93
13593;BME280;6867;50.998;4.250;2023-05-07T10:30:53;101528.00;;;20.94;76.63
13593;BME280;6867;50.998;4.250;2023-05-07T10:33:27;101533.00;;;20.75;76.75
13593;BME280;6867;50.998;4.250;2023-05-07T10:35:58;101523.56;;;20.88;76.23
13593;BME280;6867;50.998;4.250;2023-05-07T10:38:26;101517.69;;;21.01;75.20
13593;BME280;6867;50.998;4.250;2023-05-07T10:40:53;101511.53;;;20.57;74.88
13593;BME280;6867;50.998;4.250;2023-05-07T10:43:20;101524.63;;;20.82;75.46
13593;BME280;6867;50.998;4.250;2023-05-07T10:46:13;101526.72;;;20.75;75.67
13593;BME280;6867;50.998;4.250;2023-05-07T10:49:08;101532.44;;;20.73;75.40
13593;BME280;6867;50.998;4.250;2023-05-07T10:51:36;101521.97;;;20.92;74.44
13593;BME280;6867;50.998;4.250;2023-05-07T10:54:19;101517.56;;;21.18;74.00
13593;BME280;6867;50.998;4.250;2023-05-07T10:56:46;101529.91;;;20.94;73.98
13593;BME280;6867;50.998;4.250;2023-05-07T10:59:35;101533.28;;;20.74;74.77
13593;BME280;6867;50.998;4.250;2023-05-07T11:02:09;101518.63;;;20.85;73.71
13593;BME280;6867;50.998;4.250;2023-05-07T11:04:37;101551.16;;;20.64;75.95
13593;BME280;6867;50.998;4.250;2023-05-07T11:07:25;101550.34;;;20.64;76.28
13593;BME280;6867;50.998;4.250;2023-05-07T11:10:00;101535.78;;;20.80;75.45
13593;BME280;6867;50.998;4.250;2023-05-07T11:12:51;101529.50;;;21.07;75.03
13593;BME280;6867;50.998;4.250;2023-05-07T11:15:36;101533.91;;;21.13;74.47
13593;BME280;6867;50.998;4.250;2023-05-07T11:18:05;101542.94;;;21.13;75.14
13593;BME280;6867;50.998;4.250;2023-05-07T11:20:49;101527.16;;;21.21;73.92
13593;BME280;6867;50.998;4.250;2023-05-07T11:23:56;101543.09;;;21.02;75.48
13593;BME280;6867;50.998;4.250;2023-05-07T11:26:28;101542.28;;;21.01;75.08
13593;BME280;6867;50.998;4.250;2023-05-07T11:28:55;101544.53;;;21.09;75.65
13593;BME280;6867;50.998;4.250;2023-05-07T11:31:24;101539.88;;;21.10;75.63
13593;BME280;6867;50.998;4.250;2023-05-07T11:33:53;101528.97;;;21.10;75.05
13593;BME280;6867;50.998;4.250;2023-05-07T11:36:22;101535.69;;;21.29;75.08
13593;BME280;6867;50.998;4.250;2023-05-07T11:38:48;101537.50;;;21.46;74.66
13593;BME280;6867;50.998;4.250;2023-05-07T11:41:16;101513.75;;;21.51;72.73
13593;BME280;6867;50.998;4.250;2023-05-07T11:43:55;101513.41;;;21.43;72.27
13593;BME280;6867;50.998;4.250;2023-05-07T11:46:22;101513.56;;;21.31;72.33
13593;BME280;6867;50.998;4.250;2023-05-07T11:48:49;101515.41;;;21.52;72.15
13593;BME280;6867;50.998;4.250;2023-05-07T11:51:20;101513.16;;;21.44;71.51
13593;BME280;6867;50.998;4.250;2023-05-07T11:53:47;101515.84;;;21.76;71.49
13593;BME280;6867;50.998;4.250;2023-05-07T11:56:15;101521.25;;;21.66;71.31
13593;BME280;6867;50.998;4.250;2023-05-07T11:58:44;101533.97;;;21.50;72.28
13593;BME280;6867;50.998;4.250;2023-05-07T12:01:12;101524.31;;;21.75;71.73
13593;BME280;6867;50.998;4.250;2023-05-07T12:03:40;101520.78;;;21.79;71.83
13593;BME280;6867;50.998;4.250;2023-05-07T12:06:09;101525.44;;;21.79;71.66
13593;BME280;6867;50.998;4.250;2023-05-07T12:08:38;101526.75;;;21.34;72.05
13593;BME280;6867;50.998;4.250;2023-05-07T12:11:07;101535.09;;;21.22;72.42
13593;BME280;6867;50.998;4.250;2023-05-07T12:13:35;101533.75;;;21.57;72.33
13593;BME280;6867;50.998;4.250;2023-05-07T12:16:02;101541.03;;;21.41;73.15
13593;BME280;6867;50.998;4.250;2023-05-07T12:18:30;101558.25;;;21.79;74.26
13593;BME280;6867;50.998;4.250;2023-05-07T12:20:57;101541.94;;;22.52;71.85
13593;BME280;6867;50.998;4.250;2023-05-07T12:23:25;101492.47;;;23.15;68.43
13593;BME280;6867;50.998;4.250;2023-05-07T12:25:54;101500.38;;;23.77;67.12
13593;BME280;6867;50.998;4.250;2023-05-07T12:28:20;101470.94;;;23.98;64.37
13593;BME280;6867;50.998;4.250;2023-05-07T12:30:48;101456.78;;;24.30;63.47
13593;BME280;6867;50.998;4.250;2023-05-07T12:33:17;101462.53;;;24.34;63.03
13593;BME280;6867;50.998;4.250;2023-05-07T12:35:47;101454.94;;;24.99;61.93
13593;BME280;6867;50.998;4.250;2023-05-07T12:38:15;101423.84;;;25.38;59.42
13593;BME280;6867;50.998;4.250;2023-05-07T12:40:43;101410.94;;;25.09;58.80
13593;BME280;6867;50.998;4.250;2023-05-07T12:43:17;101404.06;;;25.60;57.82
13593;BME280;6867;50.998;4.250;2023-05-07T12:45:44;101398.91;;;25.77;57.00
13593;BME280;6867;50.998;4.250;2023-05-07T12:48:12;101411.44;;;25.65;57.50
13593;BME280;6867;50.998;4.250;2023-05-07T12:50:39;101423.63;;;25.82;57.24
13593;BME280;6867;50.998;4.250;2023-05-07T12:53:07;101392.91;;;25.94;55.69
13593;BME280;6867;50.998;4.250;2023-05-07T12:55:44;101446.53;;;25.49;57.61
13593;BME280;6867;50.998;4.250;2023-05-07T12:58:25;101388.03;;;25.67;55.75
13593;BME280;6867;50.998;4.250;2023-05-07T13:00:52;101387.50;;;25.89;55.45
13593;BME280;6867;50.998;4.250;2023-05-07T13:03:23;101428.75;;;25.41;56.70
13593;BME280;6867;50.998;4.250;2023-05-07T13:05:50;101442.16;;;25.96;56.51